Time;durP1;ratioP1;P1;durP2;ratioP2;P2;SDS_P1;SDS_P2;PMS_P1;PMS_P2;Temp;Humidity;BMP_temperature;BMP_pressure;BME280_temperature;BME280_humidity;BME280_pressure;Samples;Min_cycle;Max_cycle;Signal;HPM_P1;HPM_P2
2022/08/12 00:44:39;;;;;;;;;;;18.30;99.90;;;;;;5091415;28;20291;-58
2022/08/12 00:47:09;;;;;;;;;;;18.30;99.90;;;;;;5090527;28;19931;-63
2022/08/12 00:49:52;;;;;;;;;;;18.30;99.90;;;;;;5091012;28;19951;-62
2022/08/12 00:52:20;;;;;;;;;;;18.30;99.90;;;;;;5070196;28;19928;-61
2022/08/12 00:54:55;;;;;;;;;;;18.20;99.90;;;;;;5090976;28;19935;-61
2022/08/12 00:57:30;;;;;;;;;;;18.20;99.90;;;;;;5091252;28;20376;-56
2022/08/12 00:59:59;;;;;;;;;;;18.20;99.90;;;;;;5090252;28;19931;-60
2022/08/12 01:02:31;;;;;;;;;;;18.10;99.90;;;;;;5089579;28;19947;-61
2022/08/12 01:13:21;;;;;;;;;;;17.90;99.90;;;;;;5089810;28;20720;-61
2022/08/12 01:15:50;;;;;;;;;;;18.00;99.90;;;;;;5089868;28;19932;-60
2022/08/12 01:18:22;;;;;;;;;;;17.90;99.90;;;;;;5089921;28;19953;-55
2022/08/12 01:20:50;;;;;;;;;;;17.90;99.90;;;;;;5089423;28;19924;-55
2022/08/12 01:23:36;;;;;;;;;;;17.80;99.90;;;;;;5090794;28;19924;-56
2022/08/12 01:26:05;;;;;;;;;;;17.80;99.90;;;;;;5090548;28;19924;-55
2022/08/12 01:28:34;;;;;;;;;;;17.70;99.90;;;;;;5090699;28;19924;-56
2022/08/12 01:31:04;;;;;;;;;;;17.70;99.90;;;;;;5084668;28;19924;-55
2022/08/12 01:33:36;;;;;;;;;;;17.60;99.90;;;;;;5074133;28;20287;-55
2022/08/12 01:36:06;;;;;;;;;;;17.60;99.90;;;;;;5074168;28;19924;-54
2022/08/12 01:38:35;;;;;;;;;;;17.60;99.90;;;;;;5082297;28;19924;-54
2022/08/12 01:41:04;;;;;;;;;;;17.50;99.90;;;;;;5093989;28;19928;-54
2022/08/12 01:43:32;;;;;;;;;;;17.50;99.90;;;;;;5093979;28;19931;-55
2022/08/12 01:46:07;;;;;;;;;;;17.40;99.90;;;;;;5085722;28;19929;-54
2022/08/12 01:48:45;;;;;;;;;;;17.40;99.90;;;;;;5074209;28;19925;-54
2022/08/12 01:51:20;;;;;;;;;;;17.40;99.90;;;;;;5074010;28;19924;-57
2022/08/12 01:54:08;;;;;;;;;;;17.40;99.90;;;;;;5073703;28;19925;-56
2022/08/12 01:56:54;;;;;;;;;;;17.30;99.90;;;;;;5073488;28;19928;-54
2022/08/12 01:59:45;;;;;;;;;;;17.30;99.90;;;;;;5072775;28;19932;-62
2022/08/12 02:02:18;;;;;;;;;;;17.20;99.90;;;;;;5073334;28;19995;-55
2022/08/12 02:11:15;;;;;;;;;;;17.20;99.90;;;;;;5073422;28;20079;-60
2022/08/12 02:13:55;;;;;;;;;;;17.10;99.90;;;;;;5072757;28;20401;-58
2022/08/12 02:16:44;;;;;;;;;;;17.10;99.90;;;;;;5073099;28;19925;-60
2022/08/12 02:19:27;;;;;;;;;;;17.00;99.90;;;;;;5073070;28;19925;-57
2022/08/12 02:22:01;;;;;;;;;;;17.00;99.90;;;;;;5072995;28;19947;-60
2022/08/12 02:24:31;;;;;;;;;;;16.90;99.90;;;;;;5088593;28;19924;-62
2022/08/12 02:26:59;;;;;;;;;;;16.90;99.90;;;;;;5073060;28;20418;-59
2022/08/12 02:29:27;;;;;;;;;;;16.90;99.90;;;;;;5072948;28;20375;-58
2022/08/12 02:31:55;;;;;;;;;;;16.80;99.90;;;;;;5072872;28;19924;-60
2022/08/12 02:34:23;;;;;;;;;;;16.80;99.90;;;;;;5072509;28;20299;-62
2022/08/12 02:36:53;;;;;;;;;;;16.70;99.90;;;;;;5071924;28;20310;-59
2022/08/12 02:39:22;;;;;;;;;;;16.70;99.90;;;;;;5088362;28;19931;-60
2022/08/12 02:41:51;;;;;;;;;;;16.70;99.90;;;;;;5088157;28;19931;-57
2022/08/12 02:44:20;;;;;;;;;;;16.60;99.90;;;;;;5072986;28;20501;-60
2022/08/12 02:46:51;;;;;;;;;;;16.60;99.90;;;;;;5072745;28;20402;-60
2022/08/12 02:49:28;;;;;;;;;;;16.60;99.90;;;;;;5072458;28;19935;-61
2022/08/12 02:51:58;;;;;;;;;;;16.60;99.90;;;;;;5072336;28;19932;-62
2022/08/12 02:54:26;;;;;;;;;;;16.50;99.90;;;;;;5072908;28;20371;-59
2022/08/12 02:56:53;;;;;;;;;;;16.50;99.90;;;;;;5072587;28;20371;-62
2022/08/12 02:59:23;;;;;;;;;;;16.50;99.90;;;;;;5072388;28;19925;-60
2022/08/12 03:01:52;;;;;;;;;;;16.40;99.90;;;;;;5072297;28;19928;-61
2022/08/12 03:04:25;;;;;;;;;;;16.40;99.90;;;;;;5072153;28;20298;-60
2022/08/12 03:07:13;;;;;;;;;;;16.30;99.90;;;;;;5072226;28;20287;-62
2022/08/12 03:09:52;;;;;;;;;;;16.30;99.90;;;;;;5074831;28;19925;-60
2022/08/12 03:12:34;;;;;;;;;;;16.30;99.90;;;;;;5072149;28;19932;-60
2022/08/12 03:15:16;;;;;;;;;;;16.30;99.90;;;;;;5072105;28;20275;-59
2022/08/12 03:18:06;;;;;;;;;;;16.20;99.90;;;;;;5072064;28;19925;-59
2022/08/12 03:20:55;;;;;;;;;;;16.20;99.90;;;;;;5072114;28;19925;-62
2022/08/12 03:23:22;;;;;;;;;;;16.20;99.90;;;;;;5072143;28;19924;-60
2022/08/12 03:25:58;;;;;;;;;;;16.10;99.90;;;;;;5071928;28;19931;-61
2022/08/12 03:31:13;;;;;;;;;;;16.10;99.90;;;;;;5071915;28;20330;-58
2022/08/12 03:33:43;;;;;;;;;;;16.00;99.90;;;;;;5072024;28;19931;-58
2022/08/12 03:36:30;;;;;;;;;;;16.00;99.90;;;;;;5071955;28;19947;-60
2022/08/12 03:41:54;;;;;;;;;;;15.90;99.90;;;;;;5072002;28;20492;-61
2022/08/12 04:01:06;;;;;;;;;;;15.80;99.90;;;;;;5075940;28;19924;-61
2022/08/12 04:03:52;;;;;;;;;;;15.80;99.90;;;;;;5075725;28;19924;-54
2022/08/12 04:06:25;;;;;;;;;;;15.70;99.90;;;;;;5075727;28;19925;-54
2022/08/12 04:09:04;;;;;;;;;;;15.70;99.90;;;;;;5075607;28;19932;-54
2022/08/12 04:14:30;;;;;;;;;;;15.70;99.90;;;;;;5075508;28;20303;-54
2022/08/12 04:16:57;;;;;;;;;;;15.60;99.90;;;;;;5075669;28;19931;-54
2022/08/12 04:19:25;;;;;;;;;;;15.60;99.90;;;;;;5075422;28;20290;-55
2022/08/12 04:21:56;;;;;;;;;;;15.60;99.90;;;;;;5075247;28;19924;-58
2022/08/12 04:24:30;;;;;;;;;;;15.60;99.90;;;;;;5074136;28;20302;-55
2022/08/12 04:26:58;;;;;;;;;;;15.50;99.90;;;;;;5075250;28;19931;-55
2022/08/12 04:29:25;;;;;;;;;;;15.50;99.90;;;;;;5075135;28;19925;-57
2022/08/12 04:32:14;;;;;;;;;;;15.50;99.90;;;;;;5075129;28;19924;-58
2022/08/12 04:34:42;;;;;;;;;;;15.50;99.90;;;;;;5075086;28;19925;-57
2022/08/12 04:37:11;;;;;;;;;;;15.40;99.90;;;;;;5074938;28;19935;-58
2022/08/12 04:39:38;;;;;;;;;;;15.40;99.90;;;;;;5074855;28;19925;-55
2022/08/12 04:42:06;;;;;;;;;;;15.40;99.90;;;;;;5075177;28;19924;-58
2022/08/12 04:44:33;;;;;;;;;;;15.40;99.90;;;;;;5075002;28;19939;-61
2022/08/12 04:47:01;;;;;;;;;;;15.40;99.90;;;;;;5073635;28;19925;-56
2022/08/12 04:49:30;;;;;;;;;;;15.40;99.90;;;;;;5071654;28;19932;-61
2022/08/12 04:51:59;;;;;;;;;;;15.30;99.90;;;;;;5071168;28;19924;-61
2022/08/12 04:54:26;;;;;;;;;;;15.30;99.90;;;;;;5071155;28;20038;-59
2022/08/12 04:56:54;;;;;;;;;;;15.30;99.90;;;;;;5071407;28;19928;-60
2022/08/12 04:59:31;;;;;;;;;;;15.30;99.90;;;;;;5070636;28;19928;-60
2022/08/12 05:02:18;;;;;;;;;;;15.30;99.90;;;;;;5070485;28;19935;-58
2022/08/12 05:04:50;;;;;;;;;;;15.20;99.90;;;;;;5067833;28;19951;-61
2022/08/12 05:07:19;;;;;;;;;;;15.20;99.90;;;;;;5069117;28;21413;-58
2022/08/12 05:09:47;;;;;;;;;;;15.20;99.90;;;;;;5088441;28;19931;-58
2022/08/12 05:12:31;;;;;;;;;;;15.20;99.90;;;;;;5090412;28;19924;-62
2022/08/12 05:14:59;;;;;;;;;;;15.20;99.90;;;;;;5090947;28;19924;-62
2022/08/12 05:17:27;;;;;;;;;;;15.20;99.90;;;;;;5090583;28;19928;-59
2022/08/12 05:19:54;;;;;;;;;;;15.20;99.90;;;;;;5071212;28;19932;-60
2022/08/12 05:22:25;;;;;;;;;;;15.20;99.90;;;;;;5073281;28;19924;-61
2022/08/12 05:24:52;;;;;;;;;;;15.20;99.90;;;;;;5087888;28;19925;-59
2022/08/12 05:27:21;;;;;;;;;;;15.20;99.90;;;;;;5090092;28;20567;-61
2022/08/12 05:29:49;;;;;;;;;;;15.20;99.90;;;;;;5090749;28;19924;-62
2022/08/12 05:32:35;;;;;;;;;;;15.20;99.90;;;;;;5090194;28;19928;-60
2022/08/12 05:35:05;;;;;;;;;;;15.30;99.90;;;;;;5070468;28;19939;-58
2022/08/12 05:37:33;;;;;;;;;;;15.30;99.90;;;;;;5086258;28;19932;-61
2022/08/12 05:40:02;;;;;;;;;;;15.30;99.90;;;;;;5070661;28;20417;-62
2022/08/12 05:42:37;;;;;;;;;;;15.30;99.90;;;;;;5073091;28;19935;-61
2022/08/12 05:45:05;;;;;;;;;;;15.30;99.90;;;;;;5086175;28;19931;-62
2022/08/12 05:47:33;;;;;;;;;;;15.30;99.90;;;;;;5087402;28;19931;-60
2022/08/12 05:50:20;;;;;;;;;;;15.40;99.90;;;;;;5066897;28;20422;-56
2022/08/12 05:52:47;;;;;;;;;;;15.40;99.90;;;;;;5075731;28;19931;-59
2022/08/12 05:55:15;;;;;;;;;;;15.40;99.90;;;;;;5087105;28;19924;-60
2022/08/12 05:57:47;;;;;;;;;;;15.50;99.90;;;;;;5088586;28;19928;-59
2022/08/12 06:00:16;;;;;;;;;;;15.50;99.90;;;;;;5090517;28;19935;-60
2022/08/12 06:02:45;;;;;;;;;;;15.60;99.90;;;;;;5086716;28;19928;-56
2022/08/12 06:05:12;;;;;;;;;;;15.60;99.90;;;;;;5067297;28;20371;-58
2022/08/12 06:07:41;;;;;;;;;;;15.60;99.90;;;;;;5070286;28;19924;-61
2022/08/12 06:10:29;;;;;;;;;;;15.70;99.90;;;;;;5090013;28;20399;-59
2022/08/12 06:13:03;;;;;;;;;;;15.80;99.90;;;;;;5088391;28;19935;-61
2022/08/12 06:15:33;;;;;;;;;;;15.80;99.90;;;;;;5088721;28;19928;-54
2022/08/12 06:18:05;;;;;;;;;;;15.90;99.90;;;;;;5087682;28;19924;-57
2022/08/12 06:20:42;;;;;;;;;;;15.90;99.90;;;;;;5070538;28;20299;-55
2022/08/12 06:23:10;;;;;;;;;;;16.00;99.90;;;;;;5081457;28;19928;-57
2022/08/12 06:25:38;;;;;;;;;;;16.00;99.90;;;;;;5089649;28;20072;-55
2022/08/12 06:28:13;;;;;;;;;;;16.10;99.90;;;;;;5089503;28;19939;-55
2022/08/12 06:30:41;;;;;;;;;;;16.20;99.90;;;;;;5088475;28;20363;-58
2022/08/12 06:33:08;;;;;;;;;;;16.30;99.90;;;;;;5088284;28;19932;-57
2022/08/12 06:35:48;;;;;;;;;;;16.40;99.90;;;;;;5069644;28;19924;-61
2022/08/12 06:38:16;;;;;;;;;;;16.50;99.90;;;;;;5073756;28;19924;-55
2022/08/12 06:43:31;;;;;;;;;;;16.60;99.90;;;;;;5087763;28;19928;-55
2022/08/12 06:46:20;;;;;;;;;;;16.70;99.90;;;;;;5072471;28;19931;-57
2022/08/12 06:48:48;;;;;;;;;;;16.90;99.90;;;;;;5079852;28;19924;-57
2022/08/12 06:51:19;;;;;;;;;;;17.00;99.90;;;;;;5065000;28;19929;-56
2022/08/12 06:53:47;;;;;;;;;;;17.00;99.90;;;;;;5082955;28;19928;-55
2022/08/12 06:56:15;;;;;;;;;;;17.20;99.90;;;;;;5086240;28;19931;-61
2022/08/12 06:58:43;;;;;;;;;;;17.30;99.90;;;;;;5088907;28;19928;-59
2022/08/12 07:01:20;;;;;;;;;;;17.50;99.90;;;;;;5086880;28;19924;-60
2022/08/12 07:03:50;;;;;;;;;;;17.60;99.90;;;;;;5080414;28;19924;-55
2022/08/12 07:06:17;;;;;;;;;;;17.70;99.90;;;;;;5065769;28;19935;-55
2022/08/12 07:08:44;;;;;;;;;;;17.80;99.90;;;;;;5087853;28;19931;-57
2022/08/12 07:11:12;;;;;;;;;;;18.00;99.90;;;;;;5089003;28;19924;-55
2022/08/12 07:13:43;;;;;;;;;;;18.10;99.90;;;;;;5088551;28;20386;-55
2022/08/12 07:16:50;;;;;;;;;;;18.30;99.90;;;;;;5087581;28;19924;-60
2022/08/12 07:19:19;;;;;;;;;;;18.40;99.90;;;;;;5080981;28;20295;-62
2022/08/12 07:21:48;;;;;;;;;;;18.60;99.90;;;;;;5068924;28;19925;-62
2022/08/12 07:24:29;;;;;;;;;;;18.80;99.90;;;;;;5088217;28;20273;-56
2022/08/12 07:26:57;;;;;;;;;;;19.00;99.90;;;;;;5087002;28;20303;-60
2022/08/12 07:29:24;;;;;;;;;;;19.20;99.90;;;;;;5087487;28;20378;-63
2022/08/12 07:32:12;;;;;;;;;;;19.40;99.90;;;;;;5088548;28;20417;-62
2022/08/12 07:34:41;;;;;;;;;;;19.60;99.90;;;;;;5078762;28;20287;-60
2022/08/12 07:37:08;;;;;;;;;;;19.80;99.90;;;;;;5067155;28;19928;-59
2022/08/12 07:39:35;;;;;;;;;;;19.90;99.90;;;;;;5084994;28;19924;-61
2022/08/12 07:42:17;;;;;;;;;;;20.10;99.90;;;;;;5088584;28;19924;-59
2022/08/12 07:44:46;;;;;;;;;;;20.30;99.90;;;;;;5087506;28;20393;-55
2022/08/12 07:47:18;;;;;;;;;;;20.40;99.90;;;;;;5088477;28;19946;-55
2022/08/12 07:49:45;;;;;;;;;;;20.60;99.90;;;;;;5083731;28;19943;-56
2022/08/12 07:52:33;;;;;;;;;;;20.60;99.90;;;;;;5074678;28;19928;-62
2022/08/12 07:55:01;;;;;;;;;;;20.80;99.60;;;;;;5088922;28;19939;-62
2022/08/12 07:57:31;;;;;;;;;;;21.00;99.40;;;;;;5087181;28;19931;-63
2022/08/12 08:00:05;;;;;;;;;;;21.20;98.90;;;;;;5088175;28;19931;-59
2022/08/12 08:02:35;;;;;;;;;;;21.30;99.20;;;;;;5087932;28;19931;-63
2022/08/12 08:05:04;;;;;;;;;;;21.50;97.50;;;;;;5075734;28;19925;-62
2022/08/12 08:07:32;;;;;;;;;;;21.60;97.60;;;;;;5070453;28;20373;-60
2022/08/12 08:10:01;;;;;;;;;;;21.70;97.10;;;;;;5080172;28;19928;-63
2022/08/12 08:15:15;;;;;;;;;;;22.10;95.70;;;;;;5083135;28;20481;-57
2022/08/12 08:18:00;;;;;;;;;;;22.30;95.60;;;;;;5068259;28;19932;-61
2022/08/12 08:20:32;;;;;;;;;;;22.40;96.00;;;;;;5074835;28;19925;-62
2022/08/12 08:23:04;;;;;;;;;;;22.50;95.80;;;;;;5078179;28;19955;-59
2022/08/12 08:25:32;;;;;;;;;;;22.60;95.90;;;;;;5088384;28;20552;-57
2022/08/12 08:28:07;;;;;;;;;;;22.70;94.80;;;;;;5080439;28;19924;-58
2022/08/12 08:30:37;;;;;;;;;;;22.70;94.20;;;;;;5067542;28;19925;-60
2022/08/12 08:33:08;;;;;;;;;;;22.90;94.20;;;;;;5072741;28;19931;-57
2022/08/12 08:35:49;;;;;;;;;;;23.10;94.30;;;;;;5069277;28;19931;-59
2022/08/12 08:38:20;;;;;;;;;;;23.20;93.20;;;;;;5077328;28;19925;-57
2022/08/12 08:44:09;;;;;;;;;;;23.40;92.20;;;;;;5091532;28;19924;-60
2022/08/12 08:46:42;;;;;;;;;;;23.40;92.40;;;;;;5090414;28;19931;-58
2022/08/12 08:49:10;;;;;;;;;;;23.50;91.90;;;;;;5090828;28;20309;-59
2022/08/12 08:51:38;;;;;;;;;;;23.60;91.00;;;;;;5071366;28;19932;-55
2022/08/12 08:54:07;;;;;;;;;;;23.70;91.30;;;;;;5088917;28;19924;-58
2022/08/12 08:59:32;;;;;;;;;;;23.90;89.50;;;;;;5084087;28;19936;-57
2022/08/12 09:02:01;;;;;;;;;;;24.00;90.10;;;;;;5090926;28;20387;-56
2022/08/12 09:04:28;;;;;;;;;;;24.10;89.80;;;;;;5089208;28;20409;-55
2022/08/12 09:07:17;;;;;;;;;;;24.20;89.40;;;;;;5071319;28;20296;-56
2022/08/12 09:10:05;;;;;;;;;;;24.20;89.40;;;;;;5091190;28;19925;-54
2022/08/12 09:15:34;;;;;;;;;;;24.40;87.20;;;;;;5091135;28;19925;-60
2022/08/12 09:18:04;;;;;;;;;;;24.50;86.50;;;;;;5091372;28;19947;-55
2022/08/12 09:20:36;;;;;;;;;;;24.60;85.40;;;;;;5079888;28;20331;-56
2022/08/12 09:23:09;;;;;;;;;;;24.60;86.10;;;;;;5081155;28;19935;-54
2022/08/12 09:26:00;;;;;;;;;;;24.80;85.90;;;;;;5091135;28;19931;-57
2022/08/12 09:28:33;;;;;;;;;;;24.90;84.60;;;;;;5090847;28;19931;-55
2022/08/12 09:31:04;;;;;;;;;;;24.90;84.20;;;;;;5091091;28;20534;-57
2022/08/12 09:33:52;;;;;;;;;;;25.10;82.20;;;;;;5090614;28;19924;-60
2022/08/12 09:36:40;;;;;;;;;;;25.20;81.40;;;;;;5071888;28;19924;-56
2022/08/12 09:39:28;;;;;;;;;;;25.30;80.80;;;;;;5083987;28;19931;-56
2022/08/12 09:45:21;;;;;;;;;;;25.60;79.90;;;;;;5090501;28;20295;-55
2022/08/12 09:47:51;;;;;;;;;;;25.70;79.60;;;;;;5088920;28;19935;-55
2022/08/12 09:50:26;;;;;;;;;;;25.80;77.20;;;;;;5082748;28;19939;-56
2022/08/12 09:53:08;;;;;;;;;;;25.90;77.80;;;;;;5077781;28;19924;-55
2022/08/12 09:55:46;;;;;;;;;;;25.90;78.10;;;;;;5090738;28;19935;-57
2022/08/12 09:58:36;;;;;;;;;;;26.10;77.20;;;;;;5088985;28;20403;-55
2022/08/12 10:01:23;;;;;;;;;;;26.20;76.70;;;;;;5090202;28;20394;-55
2022/08/12 10:04:04;;;;;;;;;;;26.30;74.10;;;;;;5089980;28;19947;-57
2022/08/12 10:06:32;;;;;;;;;;;26.30;76.00;;;;;;5074043;28;19925;-62
2022/08/12 10:09:05;;;;;;;;;;;26.40;75.20;;;;;;5081097;28;19932;-59
2022/08/12 10:14:43;;;;;;;;;;;26.60;74.10;;;;;;5089664;28;20384;-61
2022/08/12 10:17:20;;;;;;;;;;;26.80;73.30;;;;;;5090300;28;19924;-61
2022/08/12 10:19:50;;;;;;;;;;;27.00;73.10;;;;;;5088815;28;19925;-60
2022/08/12 10:22:19;;;;;;;;;;;27.20;72.80;;;;;;5073203;28;19924;-61
2022/08/12 10:31:00;;;;;;;;;;;27.60;70.30;;;;;;5090166;28;19931;-61
2022/08/12 10:33:33;;;;;;;;;;;27.70;69.80;;;;;;5088218;28;19924;-61
2022/08/12 10:36:20;;;;;;;;;;;27.80;68.30;;;;;;5077327;28;19947;-55
2022/08/12 10:39:09;;;;;;;;;;;27.90;68.90;;;;;;5081332;28;19924;-58
2022/08/12 10:44:59;;;;;;;;;;;28.10;68.30;;;;;;5089685;28;20378;-56
2022/08/12 10:47:27;;;;;;;;;;;28.30;67.30;;;;;;5089607;28;19924;-61
2022/08/12 10:50:15;;;;;;;;;;;28.50;66.30;;;;;;5087874;28;19928;-54
2022/08/12 10:53:06;;;;;;;;;;;28.60;65.60;;;;;;5078875;28;19924;-57
2022/08/12 10:55:35;;;;;;;;;;;28.70;65.50;;;;;;5089332;28;20279;-56
2022/08/12 10:58:03;;;;;;;;;;;28.70;64.70;;;;;;5088449;28;19939;-59
2022/08/12 11:00:51;;;;;;;;;;;28.80;65.00;;;;;;5089000;28;20398;-54
2022/08/12 11:03:39;;;;;;;;;;;28.90;64.50;;;;;;5088973;28;19939;-56
2022/08/12 11:06:26;;;;;;;;;;;29.00;63.70;;;;;;5078357;28;19931;-61
2022/08/12 11:09:16;;;;;;;;;;;29.20;63.30;;;;;;5081217;28;20289;-62
2022/08/12 11:12:05;;;;;;;;;;;29.40;62.80;;;;;;5089128;28;19928;-62
2022/08/12 11:14:55;;;;;;;;;;;29.40;63.10;;;;;;5089215;28;19924;-62
2022/08/12 11:17:27;;;;;;;;;;;29.60;62.80;;;;;;5085165;28;21345;-62
2022/08/12 11:20:14;;;;;;;;;;;29.60;62.60;;;;;;5085512;28;19924;-62
2022/08/12 11:22:53;;;;;;;;;;;29.80;62.20;;;;;;5075486;28;19931;-61
2022/08/12 11:25:24;;;;;;;;;;;29.80;61.70;;;;;;5089188;28;19924;-55
2022/08/12 11:28:13;;;;;;;;;;;30.00;60.50;;;;;;5087896;28;20295;-55
2022/08/12 11:30:42;;;;;;;;;;;30.10;61.00;;;;;;5088852;28;19931;-55
2022/08/12 11:33:10;;;;;;;;;;;30.10;61.10;;;;;;5088722;28;20386;-55
2022/08/12 11:36:05;;;;;;;;;;;30.20;61.20;;;;;;5084533;28;19931;-58
2022/08/12 11:38:41;;;;;;;;;;;30.40;59.90;;;;;;5076843;28;19928;-61
2022/08/12 11:41:09;;;;;;;;;;;30.50;60.20;;;;;;5089154;28;19928;-57
2022/08/12 11:43:36;;;;;;;;;;;30.70;60.60;;;;;;5088662;28;19932;-57
2022/08/12 11:46:24;;;;;;;;;;;30.80;59.20;;;;;;5088637;28;19928;-56
2022/08/12 11:48:51;;;;;;;;;;;31.00;58.60;;;;;;5088413;28;19931;-55
2022/08/12 11:51:19;;;;;;;;;;;31.10;58.40;;;;;;5081915;28;19925;-55
2022/08/12 11:53:47;;;;;;;;;;;31.30;57.70;;;;;;5087055;28;20387;-55
2022/08/12 11:56:27;;;;;;;;;;;31.50;57.90;;;;;;5088545;28;19932;-56
2022/08/12 11:59:05;;;;;;;;;;;31.70;56.30;;;;;;5088287;28;19936;-55
2022/08/12 12:01:53;;;;;;;;;;;32.00;56.60;;;;;;5088474;28;20331;-55
2022/08/12 12:04:30;;;;;;;;;;;32.20;56.30;;;;;;5088665;28;19924;-56
2022/08/12 12:06:58;;;;;;;;;;;32.30;55.50;;;;;;5077172;28;20383;-57
2022/08/12 12:09:37;;;;;;;;;;;32.50;54.90;;;;;;5085234;28;19924;-55
2022/08/12 12:12:21;;;;;;;;;;;32.80;55.30;;;;;;5092104;28;19947;-57
2022/08/12 12:14:49;;;;;;;;;;;33.00;55.00;;;;;;5092003;28;19931;-56
2022/08/12 12:17:23;;;;;;;;;;;33.30;53.30;;;;;;5092470;28;19931;-56
2022/08/12 12:19:51;;;;;;;;;;;33.60;54.40;;;;;;5092095;28;19924;-60
2022/08/12 12:22:20;;;;;;;;;;;33.90;53.80;;;;;;5081999;28;19939;-60
2022/08/12 12:24:57;;;;;;;;;;;34.10;51.80;;;;;;5092112;28;19924;-61
2022/08/12 12:27:45;;;;;;;;;;;34.20;52.10;;;;;;5092254;28;19931;-63
2022/08/12 12:30:35;;;;;;;;;;;34.40;52.30;;;;;;5091692;28;19935;-60
2022/08/12 12:33:04;;;;;;;;;;;34.60;51.20;;;;;;5087635;28;19925;-61
2022/08/12 12:35:32;;;;;;;;;;;34.80;49.30;;;;;;5089068;28;19935;-60
2022/08/12 12:38:19;;;;;;;;;;;35.00;49.60;;;;;;5075281;28;19931;-56
2022/08/12 12:40:52;;;;;;;;;;;35.20;50.00;;;;;;5091930;28;19928;-60
2022/08/12 12:43:21;;;;;;;;;;;35.50;48.60;;;;;;5091600;28;20381;-57
2022/08/12 12:46:08;;;;;;;;;;;35.60;47.80;;;;;;5090778;28;19924;-60
2022/08/12 12:48:36;;;;;;;;;;;35.70;48.00;;;;;;5091406;28;19935;-61
2022/08/12 12:51:16;;;;;;;;;;;35.70;46.20;;;;;;5089674;28;20295;-61
2022/08/12 12:54:03;;;;;;;;;;;35.80;46.10;;;;;;5088695;28;20395;-57
2022/08/12 12:56:39;;;;;;;;;;;35.90;46.80;;;;;;5091856;28;19939;-56
2022/08/12 12:59:07;;;;;;;;;;;35.90;46.50;;;;;;5091369;28;19924;-60
2022/08/12 13:01:54;;;;;;;;;;;36.00;46.20;;;;;;5091583;28;19924;-56
2022/08/12 13:04:23;;;;;;;;;;;36.00;46.70;;;;;;5091124;28;19928;-61
2022/08/12 13:06:51;;;;;;;;;;;36.20;47.20;;;;;;5084686;28;19924;-58
2022/08/12 13:09:18;;;;;;;;;;;36.10;45.80;;;;;;5083723;28;19947;-55
2022/08/12 13:11:49;;;;;;;;;;;36.00;46.00;;;;;;5091156;28;19928;-57
2022/08/12 13:14:22;;;;;;;;;;;36.10;45.40;;;;;;5090752;28;19924;-60
2022/08/12 13:16:59;;;;;;;;;;;36.20;44.50;;;;;;5091316;28;19931;-56
2022/08/12 13:19:30;;;;;;;;;;;36.30;45.60;;;;;;5090952;28;19924;-57
2022/08/12 13:22:17;;;;;;;;;;;36.60;44.90;;;;;;5084252;28;19928;-55
2022/08/12 13:24:49;;;;;;;;;;;36.80;45.40;;;;;;5091265;28;19928;-56
2022/08/12 13:27:29;;;;;;;;;;;36.90;46.20;;;;;;5091051;28;19931;-54
2022/08/12 13:30:03;;;;;;;;;;;37.00;47.60;;;;;;5089522;28;19931;-56
2022/08/12 13:32:42;;;;;;;;;;;37.10;46.40;;;;;;5090559;28;19928;-56
2022/08/12 13:35:28;;;;;;;;;;;37.20;46.60;;;;;;5091083;28;19931;-58
2022/08/12 13:38:16;;;;;;;;;;;37.20;46.00;;;;;;5078212;28;20280;-55
2022/08/12 13:41:01;;;;;;;;;;;37.20;45.90;;;;;;5090597;28;19943;-55
2022/08/12 13:43:30;;;;;;;;;;;37.00;46.00;;;;;;5090296;28;19935;-55
2022/08/12 13:46:08;;;;;;;;;;;37.10;46.60;;;;;;5090710;28;19931;-55
2022/08/12 13:48:39;;;;;;;;;;;37.10;47.00;;;;;;5090544;28;19924;-55
2022/08/12 13:51:12;;;;;;;;;;;37.20;46.30;;;;;;5090651;28;19924;-55
2022/08/12 13:53:40;;;;;;;;;;;37.30;46.30;;;;;;5084557;28;20414;-55
2022/08/12 13:56:27;;;;;;;;;;;37.30;46.30;;;;;;5090326;28;19931;-55
2022/08/12 13:59:02;;;;;;;;;;;37.50;46.00;;;;;;5090409;28;19927;-56
2022/08/12 14:01:30;;;;;;;;;;;37.40;46.10;;;;;;5089290;28;19924;-58
2022/08/12 14:04:03;;;;;;;;;;;37.40;46.30;;;;;;5089999;28;20295;-62
2022/08/12 14:06:32;;;;;;;;;;;37.30;45.70;;;;;;5087392;28;19924;-61
2022/08/12 14:09:00;;;;;;;;;;;37.50;45.80;;;;;;5076508;28;19931;-62
2022/08/12 14:11:43;;;;;;;;;;;37.60;45.70;;;;;;5087776;28;19924;-58
2022/08/12 14:14:29;;;;;;;;;;;37.80;45.20;;;;;;5089774;28;19924;-63
2022/08/12 14:17:08;;;;;;;;;;;37.80;44.30;;;;;;5090043;28;19926;-62
2022/08/12 14:20:11;;;;;;;;;;;37.90;45.20;;;;;;5089925;28;19924;-62
2022/08/12 14:22:27;;;;;;;;;;;38.10;44.10;;;;;;5086745;28;19924;-62
2022/08/12 14:24:57;;;;;;;;;;;38.40;44.40;;;;;;5090089;28;20282;-62
2022/08/12 14:27:27;;;;;;;;;;;38.50;44.30;;;;;;5089789;28;19935;-58
2022/08/12 14:30:14;;;;;;;;;;;38.50;44.10;;;;;;5089789;28;20260;-61
2022/08/12 14:32:56;;;;;;;;;;;38.40;43.40;;;;;;5088601;28;20949;-56
2022/08/12 14:35:23;;;;;;;;;;;38.30;43.60;;;;;;5090185;28;19924;-58
2022/08/12 14:37:52;;;;;;;;;;;38.20;43.50;;;;;;5081167;28;20292;-56
2022/08/12 14:40:25;;;;;;;;;;;38.10;44.60;;;;;;5088410;28;19928;-55
2022/08/12 14:42:55;;;;;;;;;;;38.10;44.50;;;;;;5089344;28;20371;-59
2022/08/12 14:45:23;;;;;;;;;;;38.20;44.70;;;;;;5089823;28;19924;-55
2022/08/12 14:48:11;;;;;;;;;;;38.40;44.10;;;;;;5087946;28;19924;-60
2022/08/12 14:50:39;;;;;;;;;;;38.60;43.80;;;;;;5089274;28;19998;-54
2022/08/12 14:53:29;;;;;;;;;;;38.70;43.80;;;;;;5087795;28;19928;-56
2022/08/12 14:56:22;;;;;;;;;;;38.70;44.00;;;;;;5089346;28;19924;-57
2022/08/12 15:02:18;;;;;;;;;;;38.50;43.60;;;;;;5089040;28;19947;-63
2022/08/12 15:04:54;;;;;;;;;;;38.40;43.10;;;;;;5089399;28;19928;-62
2022/08/12 15:07:22;;;;;;;;;;;38.40;43.40;;;;;;5084975;28;19924;-61
2022/08/12 15:10:12;;;;;;;;;;;38.40;43.00;;;;;;5087961;28;19932;-63
2022/08/12 15:12:39;;;;;;;;;;;38.30;42.70;;;;;;5088679;28;19931;-59
2022/08/12 15:15:07;;;;;;;;;;;38.30;43.10;;;;;;5088850;28;19924;-63
2022/08/12 15:17:37;;;;;;;;;;;38.20;43.30;;;;;;5089101;28;19935;-61
2022/08/12 15:20:05;;;;;;;;;;;38.20;43.00;;;;;;5088543;28;19924;-58
2022/08/12 15:22:55;;;;;;;;;;;37.90;43.10;;;;;;5088401;28;19931;-56
2022/08/12 15:25:27;;;;;;;;;;;37.60;43.60;;;;;;5089068;28;20311;-56
2022/08/12 15:28:06;;;;;;;;;;;37.40;43.00;;;;;;5088976;28;20310;-57
2022/08/12 15:30:50;;;;;;;;;;;37.40;43.60;;;;;;5088641;28;19931;-59
2022/08/12 15:33:19;;;;;;;;;;;37.60;43.70;;;;;;5086931;28;20403;-59
2022/08/12 15:35:50;;;;;;;;;;;37.80;43.60;;;;;;5088666;28;19935;-58
2022/08/12 15:38:21;;;;;;;;;;;37.90;43.40;;;;;;5083162;28;20270;-62
2022/08/12 15:40:52;;;;;;;;;;;38.00;43.20;;;;;;5088617;28;19924;-61
2022/08/12 15:43:21;;;;;;;;;;;38.20;43.60;;;;;;5088693;28;19924;-62
2022/08/12 15:46:08;;;;;;;;;;;38.30;42.80;;;;;;5093013;28;20302;-63
2022/08/12 15:48:42;;;;;;;;;;;38.40;43.20;;;;;;5092984;28;20264;-58
2022/08/12 15:51:28;;;;;;;;;;;38.60;43.60;;;;;;5092768;28;19925;-57
2022/08/12 15:54:15;;;;;;;;;;;38.60;43.00;;;;;;5076616;28;19935;-59
2022/08/12 15:57:04;;;;;;;;;;;38.60;43.20;;;;;;5072738;28;19924;-61
2022/08/12 15:59:32;;;;;;;;;;;38.30;43.50;;;;;;5086513;28;20265;-56
2022/08/12 16:02:20;;;;;;;;;;;38.10;43.20;;;;;;5092448;28;19943;-55
2022/08/12 16:04:49;;;;;;;;;;;37.80;43.90;;;;;;5091237;28;19928;-55
2022/08/12 16:07:23;;;;;;;;;;;37.40;43.20;;;;;;5092612;28;19924;-57
2022/08/12 16:09:57;;;;;;;;;;;37.00;43.50;;;;;;5089125;28;19931;-55
2022/08/12 16:12:38;;;;;;;;;;;36.50;44.20;;;;;;5091097;28;19931;-55
2022/08/12 16:15:06;;;;;;;;;;;36.10;44.60;;;;;;5092152;28;19924;-55
2022/08/12 16:17:35;;;;;;;;;;;35.60;44.50;;;;;;5092307;28;20399;-57
2022/08/12 16:20:25;;;;;;;;;;;35.20;44.30;;;;;;5092275;28;19931;-60
2022/08/12 16:23:05;;;;;;;;;;;34.80;45.20;;;;;;5088380;28;19925;-62
2022/08/12 16:25:52;;;;;;;;;;;34.40;45.70;;;;;;5072143;28;19944;-61
2022/08/12 16:28:36;;;;;;;;;;;34.10;46.20;;;;;;5078004;28;19924;-60
2022/08/12 16:31:04;;;;;;;;;;;33.80;46.40;;;;;;5092207;28;19928;-60
2022/08/12 16:33:37;;;;;;;;;;;33.70;46.80;;;;;;5091872;28;19947;-58
2022/08/12 16:36:24;;;;;;;;;;;33.50;46.80;;;;;;5091744;28;19924;-60
2022/08/12 16:38:52;;;;;;;;;;;33.30;46.30;;;;;;5090552;28;20033;-62
2022/08/12 16:41:20;;;;;;;;;;;33.10;46.80;;;;;;5091764;28;20425;-61
2022/08/12 16:43:49;;;;;;;;;;;32.80;46.80;;;;;;5090285;28;19939;-62
2022/08/12 16:46:17;;;;;;;;;;;32.60;47.80;;;;;;5090602;28;19931;-61
2022/08/12 16:49:02;;;;;;;;;;;32.40;48.50;;;;;;5090688;28;19939;-61
2022/08/12 16:51:43;;;;;;;;;;;32.30;48.50;;;;;;5091896;28;19931;-62
2022/08/12 16:54:22;;;;;;;;;;;32.20;49.00;;;;;;5076123;28;19927;-62
2022/08/12 16:57:08;;;;;;;;;;;32.20;48.90;;;;;;5069428;28;19932;-62